Flight Briefing for CPX423

Departure Arrival
Philip S.W. Goldson International Airport (MZBZ)
Click to view FAA NOTAMS
Miami International Airport (KMIA)
Click to view FAA NOTAMS
Departure Time Arrival Time
N/A N/A
Aircraft Distance
B757-200SF 704nm
Departure METAR Arrival METAR
MZBZ 230000Z 09010G21KT 9999 BKN016 29/25 A2983 Q1010 NOSIG RMK DIST SHWR-SW KMIA 230653Z 09014KT 10SM SCT030TCU BKN038 27/21 A3008 RMK AO2 SLP185 TCU E-SE T02670206
Suggested Route
FRANT UG765 MAXIM EADEN CURSO5


View recent IFR Routes data
Notes



Charts and Procedures

Charts for MZBZ
No chart available
Charts for KMIA
No chart available

Windy.com Weather Map